KLWB/LWB METAR and TAF weather

Enter ICAO airport designator
Station Type Date Time Source
KLWB METAR 2020/02/19 13:55 UTC NOAA

KLWB 191355Z 35005KT 10SM SKC 01/M03 A3034


Station Type Date Time Source
KLWB Decoded METAR 2020/02/19 13:55 UTC NOAA

Lewisburg / Greenbrier, WV, United States (KLWB) 37-52N 080-24W
Feb 19, 2020 - 08:55 AM EST / 2020.02.19 1355 UTC
Wind: from the N (350 degrees) at 6 MPH (5 KT):0
Visibility: 10 mile(s):0
Sky conditions: clear
Temperature: 33 F (1 C)
Windchill: 26 F (-3 C):1
Dew Point: 26 F (-3 C)
Relative Humidity: 74%
Pressure (altimeter): 30.34 in. Hg (1027 hPa)
ob: KLWB 191355Z 35005KT 10SM SKC 01/M03 A3034
cycle: 14

Station Type Date Time Source
KLWB TAF 2020/02/19 12:42 UTC NOAA

TAF KLWB 191140Z 1912/2012 34006KT P6SM BKN030 BKN200
FM191400 34008KT P6SM BKN200
FM192200 01004KT P6SM BKN200
FM201000 03005KT P6SM BKN130

Example: see airport list